Terminal Aerodrome Forecast
Issued by NWS Charleston, WV

Current Version | Previous Version | Text Only | Print | Product List | Glossary Off
Versions: 1 2 3 4 5 6 7 8 9 10 11 12 13 14 15 16 17 18 19 20 21 22 23 24

797
FTUS41 KRLX 160300 AAA
TAFHTS
TAF AMD
KHTS 160300Z 1603/1624 22004KT P6SM OVC013
     FM160400 22007KT 6SM -DZ OVC008
     FM160500 24006KT P6SM OVC015
     FM160600 25006KT P6SM OVC025
     FM161800 29006KT P6SM SCT025=

USA.gov is the U.S. government's official web portal to all federal, state and local government web resources and services.